Time;durP1;ratioP1;P1;durP2;ratioP2;P2;SDS_P1;SDS_P2;PMS_P1;PMS_P2;Temp;Humidity;BMP_temperature;BMP_pressure;BME280_temperature;BME280_humidity;BME280_pressure;Samples;Min_cycle;Max_cycle;Signal;HPM_P1;HPM_P2
2022/01/11 00:00:48;;;;;;;37.85;16.05;;;;;;;0.52;100.00;100031.53;5044783;28;20025;-67
2022/01/11 00:03:15;;;;;;;40.97;16.70;;;;;;;0.48;100.00;100023.91;5039040;28;20014;-67
2022/01/11 00:08:12;;;;;;;34.53;16.02;;;;;;;0.50;100.00;100016.63;5050667;28;20033;-67
2022/01/11 00:10:52;;;;;;;34.65;14.98;;;;;;;0.43;100.00;100029.53;5042629;28;20083;-69
2022/01/11 00:13:19;;;;;;;28.38;14.68;;;;;;;0.15;100.00;100009.34;5050125;28;20023;-67
2022/01/11 00:15:45;;;;;;;31.55;14.57;;;;;;;0.21;100.00;99996.47;5050273;28;20033;-67
2022/01/11 00:18:11;;;;;;;33.08;15.30;;;;;;;0.50;100.00;100051.25;5050757;28;20099;-67
2022/01/11 00:20:38;;;;;;;42.95;17.13;;;;;;;0.27;100.00;100040.41;5049660;28;20029;-67
2022/01/11 00:25:32;;;;;;;37.03;17.88;;;;;;;0.35;100.00;100030.09;5052277;28;20029;-67
2022/01/11 00:27:58;;;;;;;42.00;17.35;;;;;;;0.37;100.00;100043.28;5044005;28;20030;-67
2022/01/11 00:30:29;;;;;;;38.95;16.98;;;;;;;0.34;100.00;100027.50;5036971;28;20029;-67
2022/01/11 00:32:57;;;;;;;41.90;16.98;;;;;;;0.34;100.00;100035.50;5042584;28;20025;-67
2022/01/11 00:35:27;;;;;;;42.03;17.40;;;;;;;0.38;100.00;100037.00;5053533;28;20432;-67
2022/01/11 00:37:53;;;;;;;45.30;17.23;;;;;;;0.38;100.00;100037.00;5044764;28;20137;-67
2022/01/11 00:40:19;;;;;;;41.05;18.10;;;;;;;0.38;100.00;100035.19;5038886;28;20053;-67
2022/01/11 00:42:44;;;;;;;41.92;16.77;;;;;;;0.42;100.00;100044.66;5046200;28;20111;-67
2022/01/11 00:45:11;;;;;;;33.25;16.30;;;;;;;0.58;100.00;100044.44;5039756;28;20104;-67
2022/01/11 00:47:37;;;;;;;42.53;17.13;;;;;;;0.53;100.00;100035.91;5039522;28;20030;-67
2022/01/11 00:50:07;;;;;;;34.97;15.95;;;;;;;0.62;100.00;100043.25;5038970;28;20026;-67
2022/01/11 00:52:33;;;;;;;42.67;16.58;;;;;;;0.65;100.00;100035.06;5047746;28;20021;-67
2022/01/11 00:54:58;;;;;;;39.70;17.02;;;;;;;0.71;100.00;100036.44;5053365;28;20458;-67
2022/01/11 00:57:23;;;;;;;40.63;17.05;;;;;;;0.65;100.00;100039.50;5051069;28;20077;-67
2022/01/11 00:59:49;;;;;;;37.80;17.27;;;;;;;0.37;100.00;99982.06;5042468;28;21950;-67
2022/01/11 01:02:14;;;;;;;37.72;17.05;;;;;;;0.77;100.00;100040.47;5051550;28;20395;-67
2022/01/11 01:04:40;;;;;;;37.63;17.25;;;;;;;0.77;100.00;100035.97;5051335;28;20044;-67
2022/01/11 01:07:05;;;;;;;43.75;17.67;;;;;;;0.56;100.00;100017.06;5043738;28;20017;-67
2022/01/11 01:09:40;;;;;;;39.55;17.05;;;;;;;0.72;100.00;100038.13;5047378;28;20029;-67
2022/01/11 01:12:06;;;;;;;41.10;17.05;;;;;;;0.59;100.00;100043.47;5041370;28;20494;-67
2022/01/11 01:14:31;;;;;;;35.17;17.63;;;;;;;0.57;100.00;100049.84;5046488;28;20047;-67
2022/01/11 01:16:57;;;;;;;43.63;17.05;;;;;;;0.51;100.00;100045.81;5050985;28;20033;-67
2022/01/11 01:19:26;;;;;;;41.58;18.35;;;;;;;0.48;100.00;100047.88;5053073;28;20490;-67
2022/01/11 01:21:53;;;;;;;40.47;16.92;;;;;;;0.39;100.00;100054.66;5033754;28;20022;-67
2022/01/11 01:24:18;;;;;;;43.25;19.20;;;;;;;0.40;100.00;100049.25;5045672;28;20025;-67
2022/01/11 01:26:43;;;;;;;40.58;17.80;;;;;;;0.41;100.00;100047.44;5042629;28;20039;-67
2022/01/11 01:29:09;;;;;;;37.00;17.58;;;;;;;0.42;100.00;100049.16;5033130;28;20033;-68
2022/01/11 01:31:34;;;;;;;41.63;17.25;;;;;;;0.36;100.00;100044.25;5033498;28;20491;-68
2022/01/11 01:33:59;;;;;;;32.97;17.02;;;;;;;0.43;100.00;100053.50;5033089;28;20083;-67
2022/01/11 01:36:26;;;;;;;38.90;16.85;;;;;;;0.43;100.00;100051.69;5038130;28;20025;-67
2022/01/11 01:38:52;;;;;;;42.90;17.05;;;;;;;0.41;100.00;100063.41;5050700;28;20033;-67
2022/01/11 01:41:19;;;;;;;41.55;18.33;;;;;;;0.44;100.00;100057.84;5046462;28;20104;-68
2022/01/11 01:43:47;;;;;;;37.50;16.58;;;;;;;0.49;100.00;100060.19;5033206;28;20100;-68
2022/01/11 01:46:14;;;;;;;39.17;16.83;;;;;;;0.49;100.00;100060.19;5032887;28;20446;-67
2022/01/11 01:48:39;;;;;;;38.55;17.52;;;;;;;0.48;100.00;100059.34;5044504;28;20036;-68
2022/01/11 01:51:06;;;;;;;40.35;16.25;;;;;;;0.47;100.00;100067.44;5047807;28;20029;-68
2022/01/11 01:53:34;;;;;;;32.38;15.48;;;;;;;0.30;100.00;100056.16;5043902;28;20063;-68
2022/01/11 01:55:59;;;;;;;41.28;17.52;;;;;;;0.38;100.00;100071.59;5034950;28;20033;-67
2022/01/11 01:58:25;;;;;;;32.25;16.65;;;;;;;0.55;100.00;100075.72;5040025;28;20033;-67
2022/01/11 02:00:54;;;;;;;45.58;17.25;;;;;;;0.45;100.00;100080.88;5045464;28;20033;-68
2022/01/11 02:03:26;;;;;;;;;;;;;;;0.45;100.00;100086.22;5048350;28;20095;-67
2022/01/11 02:05:53;;;;;;;37.90;16.45;;;;;;;0.43;100.00;100075.66;5040504;28;19960;-67
2022/01/11 02:08:19;;;;;;;34.40;15.45;;;;;;;0.37;100.00;100056.59;5042073;28;20032;-68
2022/01/11 02:10:45;;;;;;;37.03;16.13;;;;;;;0.49;100.00;100070.84;5049045;28;20029;-68
2022/01/11 02:13:10;;;;;;;42.42;17.42;;;;;;;0.45;100.00;100072.91;5047243;28;20028;-68
2022/01/11 02:15:36;;;;;;;35.92;15.65;;;;;;;0.34;100.00;100046.16;5039187;28;20036;-68
2022/01/11 02:18:28;;;;;;;43.08;16.85;;;;;;;0.43;100.00;100067.66;5045713;28;20465;-69
2022/01/11 02:20:58;;;;;;;38.92;16.88;;;;;;;0.43;100.00;100065.00;5045473;28;20559;-68
2022/01/11 02:23:25;;;;;;;35.70;16.80;;;;;;;0.43;100.00;100066.81;5037755;28;20022;-67
2022/01/11 02:25:51;;;;;;;33.72;16.02;;;;;;;0.52;100.00;100067.97;5032520;28;20032;-68
2022/01/11 02:28:22;;;;;;;37.75;16.90;;;;;;;0.51;100.00;100063.63;5038572;28;20033;-68
2022/01/11 02:30:48;;;;;;;35.38;16.55;;;;;;;0.60;100.00;100036.31;5036737;28;20062;-68
2022/01/11 02:33:31;;;;;;;36.28;16.73;;;;;;;0.76;100.00;100068.03;5048969;28;20021;-68
2022/01/11 02:35:57;;;;;;;34.65;15.90;;;;;;;0.70;100.00;100071.16;5036266;28;20080;-67
2022/01/11 02:38:22;;;;;;;35.90;15.63;;;;;;;0.63;100.00;100071.59;5040651;28;20052;-67
2022/01/11 02:40:47;;;;;;;36.55;16.15;;;;;;;0.61;100.00;100072.66;5042364;28;20501;-67
2022/01/11 02:43:13;;;;;;;36.03;16.00;;;;;;;0.68;100.00;100067.72;5045213;28;20514;-67
2022/01/11 02:45:38;;;;;;;35.35;16.60;;;;;;;0.88;100.00;100065.34;5049209;28;20029;-67
2022/01/11 02:48:04;;;;;;;37.40;15.02;;;;;;;0.60;100.00;100041.66;5050209;28;20041;-67
2022/01/11 02:50:29;;;;;;;41.53;17.15;;;;;;;0.73;100.00;100058.44;5038033;28;20021;-67
2022/01/11 02:52:54;;;;;;;35.10;16.77;;;;;;;0.71;100.00;100059.53;5046637;28;20025;-67
2022/01/11 02:55:20;;;;;;;43.00;17.15;;;;;;;0.67;100.00;100058.06;5032432;28;20387;-67
2022/01/11 02:57:45;;;;;;;39.60;16.20;;;;;;;0.77;100.00;100059.94;5043189;28;20437;-67
2022/01/11 03:00:19;;;;;;;34.25;16.45;;;;;;;0.71;100.00;100062.19;5044601;28;20104;-67
2022/01/11 03:02:45;;;;;;;32.70;15.43;;;;;;;0.64;100.00;100067.97;5044773;28;20505;-67
2022/01/11 03:05:12;;;;;;;35.55;15.77;;;;;;;0.60;100.00;100063.81;5050182;28;20052;-67
2022/01/11 03:07:39;;;;;;;35.45;15.77;;;;;;;0.59;100.00;100059.44;5041799;28;20055;-67
2022/01/11 03:10:17;;;;;;;40.47;15.77;;;;;;;0.58;100.00;100071.06;5051212;28;20390;-67
2022/01/11 03:12:43;;;;;;;35.80;14.93;;;;;;;0.56;100.00;100067.66;5045682;28;20036;-67
2022/01/11 03:15:11;;;;;;;36.28;15.98;;;;;;;0.35;100.00;100030.09;5040336;28;20022;-67
2022/01/11 03:17:37;;;;;;;29.30;14.65;;;;;;;0.68;100.00;100078.38;5032756;28;20479;-68
2022/01/11 03:20:02;;;;;;;42.05;16.02;;;;;;;0.52;100.00;100070.63;5031881;28;20040;-67
2022/01/11 03:22:28;;;;;;;37.13;17.17;;;;;;;0.47;100.00;100064.78;5046256;28;20025;-68
2022/01/11 03:24:53;;;;;;;37.97;15.68;;;;;;;0.33;100.00;100049.78;5051641;28;20017;-68
2022/01/11 03:27:18;;;;;;;39.10;15.55;;;;;;;0.47;100.00;100068.28;5043276;28;20026;-68
2022/01/11 03:29:44;;;;;;;34.55;15.05;;;;;;;0.41;100.00;100058.94;5031860;28;20029;-68
2022/01/11 03:32:10;;;;;;;39.00;15.32;;;;;;;0.65;100.00;100068.81;5037332;28;20490;-68
2022/01/11 03:34:35;;;;;;;36.75;16.50;;;;;;;0.54;100.00;100069.56;5043051;28;20021;-68
2022/01/11 03:37:00;;;;;;;34.10;14.98;;;;;;;0.52;100.00;100055.50;5051212;28;20582;-68
2022/01/11 03:39:27;;;;;;;41.58;17.48;;;;;;;0.57;100.00;100079.16;5049254;28;20021;-68
2022/01/11 03:41:52;;;;;;;33.80;16.00;;;;;;;0.46;100.00;100073.75;5046048;28;20375;-67
2022/01/11 03:44:17;;;;;;;34.95;15.50;;;;;;;0.39;100.00;100083.94;5051387;28;20056;-68
2022/01/11 03:46:43;;;;;;;39.58;16.98;;;;;;;0.14;100.00;100079.50;5053301;28;20375;-68
2022/01/11 03:49:08;;;;;;;34.35;16.70;;;;;;;0.16;100.00;100089.06;5045431;28;20024;-68
2022/01/11 03:51:37;;;;;;;40.85;17.85;;;;;;;0.10;100.00;100086.81;5049062;28;20028;-68
2022/01/11 03:54:09;;;;;;;43.90;18.98;;;;;;;0.11;100.00;100088.53;5049670;28;20036;-68
2022/01/11 03:56:35;;;;;;;46.28;17.33;;;;;;;0.07;100.00;100087.03;5052497;28;20036;-68
2022/01/11 03:59:06;;;;;;;43.40;17.60;;;;;;;0.02;100.00;100097.13;5052095;28;20498;-68
2022/01/11 04:01:32;;;;;;;45.30;20.10;;;;;;;-0.10;100.00;100079.38;5048219;28;20580;-68
2022/01/11 04:03:57;;;;;;;42.83;18.80;;;;;;;-0.04;100.00;100090.41;5050330;28;20086;-68
2022/01/11 04:06:23;;;;;;;42.42;17.33;;;;;;;-0.01;100.00;100097.34;5040262;28;20464;-68
2022/01/11 04:08:49;;;;;;;38.13;16.63;;;;;;;-0.02;100.00;100087.66;5046881;28;20021;-68
2022/01/11 04:11:14;;;;;;;41.50;16.55;;;;;;;-0.04;100.00;100094.91;5041379;28;20021;-68
2022/01/11 04:13:40;;;;;;;35.10;16.38;;;;;;;-0.04;100.00;100085.09;5049326;28;20025;-68
2022/01/11 04:16:07;;;;;;;42.03;17.48;;;;;;;-0.07;100.00;100100.44;5049939;28;20126;-68
2022/01/11 04:18:32;;;;;;;41.80;17.27;;;;;;;-0.09;100.00;100102.34;5050347;28;20013;-68
2022/01/11 04:20:57;;;;;;;37.05;16.13;;;;;;;-0.18;100.00;100079.88;5040353;28;20026;-68
2022/01/11 04:23:25;;;;;;;35.33;17.35;;;;;;;0.01;100.00;100100.75;5044590;28;20021;-67
2022/01/11 04:25:50;;;;;;;37.65;16.33;;;;;;;0.08;100.00;100099.41;5045377;28;20079;-68
2022/01/11 04:28:16;;;;;;;41.13;16.98;;;;;;;0.11;100.00;100107.16;5042866;28;20034;-68
2022/01/11 04:30:41;;;;;;;34.50;16.65;;;;;;;0.14;100.00;100112.28;5051880;28;20095;-67
2022/01/11 04:33:06;;;;;;;35.97;16.00;;;;;;;0.08;100.00;100096.72;5053913;28;20536;-68
2022/01/11 04:35:32;;;;;;;41.80;16.10;;;;;;;0.03;100.00;100104.19;5052690;28;20020;-68
2022/01/11 04:37:58;;;;;;;33.65;16.23;;;;;;;0.13;100.00;100107.91;5041056;28;20052;-68
2022/01/11 04:40:24;;;;;;;41.90;17.00;;;;;;;0.20;100.00;100121.63;5048962;28;20048;-68
2022/01/11 04:42:49;;;;;;;38.20;16.38;;;;;;;0.25;100.00;100119.50;5044674;28;20051;-68
2022/01/11 04:45:16;;;;;;;34.30;15.90;;;;;;;0.26;100.00;100123.03;5049476;28;20026;-68
2022/01/11 04:47:42;;;;;;;40.78;16.73;;;;;;;0.32;100.00;100119.97;5044982;28;20028;-68
2022/01/11 04:50:09;;;;;;;36.85;16.23;;;;;;;0.24;100.00;100109.84;5048914;28;20028;-68
2022/01/11 04:52:34;;;;;;;37.85;16.15;;;;;;;0.29;100.00;100115.69;5045929;28;20032;-73
2022/01/11 04:55:00;;;;;;;34.22;15.63;;;;;;;0.41;100.00;100120.16;5045208;28;20474;-74
2022/01/11 04:57:26;;;;;;;35.55;15.93;;;;;;;0.22;100.00;100080.66;5045067;28;20029;-75
2022/01/11 04:59:51;;;;;;;34.20;16.33;;;;;;;0.53;100.00;100120.28;5049534;28;20025;-71
2022/01/11 05:02:16;;;;;;;44.50;19.67;;;;;;;0.40;100.00;100101.66;5046150;28;20017;-72
2022/01/11 05:04:43;;;;;;;36.28;16.70;;;;;;;0.18;100.00;100072.97;5043819;28;20029;-74
2022/01/11 05:07:09;;;;;;;41.00;18.60;;;;;;;0.43;100.00;100126.22;5041251;28;20022;-72
2022/01/11 05:09:34;;;;;;;39.80;19.35;;;;;;;0.22;100.00;100103.75;5051661;28;20032;-75
2022/01/11 05:11:59;;;;;;;41.10;19.38;;;;;;;0.10;100.00;100088.63;5053167;28;20025;-74
2022/01/11 05:14:25;;;;;;;40.45;17.85;;;;;;;-0.05;100.00;100061.28;5052285;28;20095;-73
2022/01/11 05:16:50;;;;;;;43.30;17.20;;;;;;;0.25;100.00;100105.38;5052725;28;20104;-73
2022/01/11 05:19:15;;;;;;;32.83;16.48;;;;;;;0.55;100.00;100135.19;5049256;28;20020;-73
2022/01/11 05:21:42;;;;;;;36.95;18.33;;;;;;;0.46;100.00;100140.28;5053379;28;20028;-71
2022/01/11 05:24:09;;;;;;;43.25;17.25;;;;;;;0.15;100.00;100100.66;5053989;28;20025;-73
2022/01/11 05:26:35;;;;;;;40.85;17.88;;;;;;;0.48;100.00;100133.91;5047977;28;20033;-73
2022/01/11 05:29:00;;;;;;;35.67;17.38;;;;;;;0.28;100.00;100118.44;5052137;28;20017;-71
2022/01/11 05:31:25;;;;;;;39.78;19.08;;;;;;;0.42;100.00;100119.22;5075150;22;20505;-74
2022/01/11 05:33:51;;;;;;;40.13;17.83;;;;;;;-0.01;100.00;100074.25;5070366;28;20029;-73
2022/01/11 05:36:16;;;;;;;39.03;18.15;;;;;;;0.17;100.00;100119.19;5057918;28;20028;-69
2022/01/11 05:38:42;;;;;;;43.22;18.95;;;;;;;0.11;100.00;100119.63;5049358;28;20029;-70
2022/01/11 05:41:07;;;;;;;42.10;19.27;;;;;;;0.08;100.00;100130.44;5045528;28;20418;-74
2022/01/11 05:43:35;;;;;;;41.08;18.20;;;;;;;0.16;100.00;100144.13;5042666;28;20418;-72
2022/01/11 05:46:01;;;;;;;41.38;17.52;;;;;;;0.23;100.00;100156.03;5041599;28;20094;-72
2022/01/11 05:48:26;;;;;;;40.80;18.20;;;;;;;0.11;100.00;100124.94;5040410;28;20038;-72
2022/01/11 05:50:51;;;;;;;37.30;17.65;;;;;;;0.27;100.00;100151.38;5048582;28;20029;-73
2022/01/11 05:53:17;;;;;;;39.83;17.67;;;;;;;0.09;100.00;100122.38;5047333;28;20041;-72
2022/01/11 05:55:42;;;;;;;44.72;18.65;;;;;;;0.23;100.00;100145.38;5045000;28;20041;-72
2022/01/11 05:58:08;;;;;;;42.13;17.55;;;;;;;0.34;100.00;100173.91;5041083;28;20021;-68
2022/01/11 06:00:33;;;;;;;36.55;17.20;;;;;;;0.35;100.00;100180.97;5043210;28;20118;-69
2022/01/11 06:02:58;;;;;;;42.33;17.52;;;;;;;0.35;100.00;100175.66;5044630;28;20021;-68
2022/01/11 06:05:24;;;;;;;37.97;17.77;;;;;;;0.38;100.00;100176.28;5043259;28;20033;-67
2022/01/11 06:07:51;;;;;;;34.95;16.50;;;;;;;0.36;100.00;100172.84;5046950;28;20544;-67
2022/01/11 06:10:16;;;;;;;38.97;18.60;;;;;;;0.27;100.00;100172.66;5043646;28;20037;-67
2022/01/11 06:12:42;;;;;;;40.08;18.83;;;;;;;0.31;100.00;100179.47;5047820;28;20035;-66
2022/01/11 06:15:07;;;;;;;38.13;17.48;;;;;;;0.33;100.00;100177.56;5038738;28;20500;-70
2022/01/11 06:17:33;;;;;;;38.10;18.95;;;;;;;0.27;100.00;100168.19;5043378;28;20064;-72
2022/01/11 06:19:58;;;;;;;50.88;22.70;;;;;;;0.25;100.00;100163.91;5042159;28;20020;-74
2022/01/11 06:22:24;;;;;;;48.95;21.02;;;;;;;0.39;100.00;100179.78;5039916;28;20099;-71
2022/01/11 06:24:51;;;;;;;40.17;19.20;;;;;;;0.40;100.00;100174.38;5042816;28;20032;-71
2022/01/11 06:27:17;;;;;;;39.63;19.02;;;;;;;0.35;100.00;100167.66;5040758;28;20029;-72
2022/01/11 06:29:42;;;;;;;38.83;18.55;;;;;;;0.31;100.00;100161.66;5045957;28;20036;-74
2022/01/11 06:32:07;;;;;;;38.85;18.42;;;;;;;0.46;100.00;100194.41;5038986;28;20048;-67
2022/01/11 06:34:33;;;;;;;45.08;20.08;;;;;;;0.47;100.00;100198.75;5038588;28;20136;-68
2022/01/11 06:36:59;;;;;;;45.75;19.92;;;;;;;0.38;100.00;100197.56;5050462;28;20576;-69
2022/01/11 06:39:25;;;;;;;40.72;18.73;;;;;;;0.37;100.00;100200.38;5043946;28;20021;-69
2022/01/11 06:41:50;;;;;;;45.25;19.35;;;;;;;0.37;100.00;100203.03;5043354;28;20078;-68
2022/01/11 06:44:16;;;;;;;47.38;18.77;;;;;;;0.41;100.00;100196.50;5043533;28;20028;-67
2022/01/11 06:46:41;;;;;;;42.58;20.42;;;;;;;0.40;100.00;100198.34;5046234;28;20044;-68
2022/01/11 06:49:07;;;;;;;41.65;19.45;;;;;;;0.46;100.00;100209.53;5045110;28;20041;-69
2022/01/11 06:51:32;;;;;;;42.03;19.33;;;;;;;0.50;100.00;100211.00;5044731;28;20079;-70
2022/01/11 06:53:57;;;;;;;47.63;20.63;;;;;;;0.47;100.00;100211.22;5047445;28;20033;-69
2022/01/11 06:56:24;;;;;;;48.10;21.98;;;;;;;0.52;100.00;100217.94;5044604;28;20037;-71
2022/01/11 06:58:49;;;;;;;49.35;20.75;;;;;;;0.34;100.00;100185.44;5049799;28;20022;-74
2022/01/11 07:01:15;;;;;;;44.55;21.65;;;;;;;0.56;100.00;100221.25;5045156;28;20044;-72
2022/01/11 07:03:40;;;;;;;45.97;20.35;;;;;;;0.62;100.00;100236.81;5047763;28;20488;-71
2022/01/11 07:06:05;;;;;;;46.05;20.55;;;;;;;0.43;100.00;100210.59;5044169;28;20444;-71
2022/01/11 07:08:31;;;;;;;47.22;19.88;;;;;;;0.60;100.00;100238.72;5045984;28;20028;-69
2022/01/11 07:10:56;;;;;;;45.15;20.35;;;;;;;0.48;100.00;100216.44;5041500;28;20028;-70
2022/01/11 07:13:22;;;;;;;46.15;20.63;;;;;;;0.49;100.00;100218.16;5042693;28;20024;-73
2022/01/11 07:15:47;;;;;;;49.63;21.17;;;;;;;0.53;100.00;100211.66;5041645;28;20029;-72
2022/01/11 07:18:13;;;;;;;43.45;21.23;;;;;;;0.85;100.00;100248.56;5038327;28;20055;-75
2022/01/11 07:20:42;;;;;;;41.42;19.02;;;;;;;0.61;100.00;100208.47;5048145;28;20079;-75
2022/01/11 07:23:08;;;;;;;;;;;;;;;0.70;100.00;100247.78;5042392;28;20402;-74
2022/01/11 07:25:33;;;;;;;50.22;22.70;;;;;;;0.38;100.00;100202.91;5043676;28;20028;-73
2022/01/11 07:28:00;;;;;;;48.95;22.85;;;;;;;0.70;100.00;100257.59;5045514;28;20041;-71
2022/01/11 07:30:25;;;;;;;44.00;21.23;;;;;;;0.60;100.00;100228.94;5045467;28;20646;-69
2022/01/11 07:32:51;;;;;;;47.80;21.02;;;;;;;0.73;100.00;100254.72;5043938;28;20045;-71
2022/01/11 07:35:16;;;;;;;42.67;20.52;;;;;;;0.76;100.00;100257.16;5046787;28;20450;-70
2022/01/11 07:37:41;;;;;;;43.92;18.98;;;;;;;0.70;100.00;100242.47;5053724;28;20501;-71
2022/01/11 07:40:07;;;;;;;44.58;19.50;;;;;;;0.80;100.00;100251.53;5052337;28;20033;-69
2022/01/11 07:42:33;;;;;;;35.45;17.73;;;;;;;0.75;100.00;100240.34;5051524;28;20410;-68
2022/01/11 07:44:58;;;;;;;36.45;17.85;;;;;;;0.88;100.00;100267.84;5048478;28;20035;-69
2022/01/11 07:47:24;;;;;;;40.20;21.65;;;;;;;0.96;100.00;100264.66;5042360;28;20047;-73
2022/01/11 07:49:49;;;;;;;43.83;20.88;;;;;;;1.02;100.00;100260.69;5044107;28;20427;-71
2022/01/11 07:52:15;;;;;;;38.33;17.90;;;;;;;0.79;100.00;100233.00;5046288;28;20131;-70
2022/01/11 07:54:41;;;;;;;39.13;17.77;;;;;;;1.05;100.00;100264.03;5044847;28;20033;-71
2022/01/11 07:57:06;;;;;;;34.78;17.33;;;;;;;0.95;100.00;100268.28;5038777;28;20025;-71
2022/01/11 07:59:32;;;;;;;35.13;16.42;;;;;;;0.97;100.00;100270.81;5047260;28;20024;-71
2022/01/11 08:01:58;;;;;;;36.83;18.25;;;;;;;0.92;100.00;100273.81;5052613;28;20598;-70
2022/01/11 08:04:23;;;;;;;41.35;19.05;;;;;;;0.94;100.00;100273.69;5053705;28;20040;-72
2022/01/11 08:06:49;;;;;;;48.97;21.27;;;;;;;0.87;100.00;100247.50;5053642;28;20109;-70
2022/01/11 08:09:15;;;;;;;39.90;18.45;;;;;;;1.00;100.00;100279.47;5044570;28;20120;-71
2022/01/11 08:11:41;;;;;;;39.03;16.63;;;;;;;0.99;100.00;100282.22;5051544;28;20047;-70
2022/01/11 08:14:06;;;;;;;34.58;16.65;;;;;;;1.04;100.00;100288.09;5046318;28;20474;-71
2022/01/11 08:16:31;;;;;;;49.45;20.88;;;;;;;1.06;100.00;100284.38;5050129;28;20094;-70
2022/01/11 08:18:57;;;;;;;43.25;19.98;;;;;;;1.09;100.00;100299.28;5040422;28;20032;-71
2022/01/11 08:21:22;;;;;;;43.30;18.85;;;;;;;1.06;100.00;100288.84;5049857;28;20021;-73
2022/01/11 08:23:47;;;;;;;41.33;20.17;;;;;;;1.19;100.00;100291.53;5052889;28;20099;-71
2022/01/11 08:26:13;;;;;;;41.05;20.70;;;;;;;1.27;100.00;100299.84;5040384;28;20044;-70
2022/01/11 08:28:39;;;;;;;40.08;18.85;;;;;;;1.22;100.00;100297.50;5046340;28;20047;-72
2022/01/11 08:31:04;;;;;;;35.10;16.02;;;;;;;1.35;100.00;100296.63;5046540;28;20036;-70
2022/01/11 08:33:30;;;;;;;34.53;16.48;;;;;;;1.40;100.00;100306.00;5045908;28;20063;-72
2022/01/11 08:35:55;;;;;;;34.00;15.90;;;;;;;1.47;100.00;100303.78;5058254;28;20079;-72
2022/01/11 08:38:20;;;;;;;29.77;15.52;;;;;;;1.63;100.00;100306.22;5044523;28;20444;-71
2022/01/11 08:40:46;;;;;;;36.30;15.50;;;;;;;1.71;100.00;100302.03;5053408;28;20903;-73
2022/01/11 08:43:13;;;;;;;39.63;16.20;;;;;;;1.89;100.00;100307.00;5045154;28;20040;-72
2022/01/11 08:45:39;;;;;;;37.53;14.75;;;;;;;1.88;100.00;100310.63;5049122;28;20028;-72
2022/01/11 08:48:05;;;;;;;39.42;16.50;;;;;;;1.86;100.00;100305.41;5056105;28;20493;-71
2022/01/11 08:50:31;;;;;;;39.35;16.42;;;;;;;1.78;100.00;100291.75;5052528;28;20033;-73
2022/01/11 08:52:57;;;;;;;33.65;17.02;;;;;;;1.83;100.00;100292.28;5047906;28;20123;-72
2022/01/11 08:55:23;;;;;;;31.67;16.42;;;;;;;1.97;100.00;100324.16;5052261;28;20127;-70
2022/01/11 08:57:49;;;;;;;29.50;15.82;;;;;;;2.04;100.00;100307.69;5076996;22;20048;-69
2022/01/11 09:00:18;;;;;;;26.25;14.07;;;;;;;2.07;100.00;100307.47;5064947;28;20029;-70
2022/01/11 09:02:50;;;;;;;36.25;14.95;;;;;;;2.19;100.00;100327.94;5072035;28;20028;-70
2022/01/11 09:05:16;;;;;;;28.13;14.45;;;;;;;2.18;100.00;100334.25;5054817;28;20552;-71
2022/01/11 09:07:42;;;;;;;33.08;16.30;;;;;;;2.02;100.00;100325.63;5056123;28;20029;-70
2022/01/11 09:10:09;;;;;;;27.90;14.82;;;;;;;2.03;100.00;100317.53;5061924;28;20083;-71
2022/01/11 09:12:34;;;;;;;35.83;16.48;;;;;;;2.13;100.00;100329.25;5060831;28;20057;-70
2022/01/11 09:15:00;;;;;;;36.60;17.77;;;;;;;2.27;100.00;100327.38;5054830;28;20573;-70
2022/01/11 09:17:26;;;;;;;33.38;17.20;;;;;;;2.39;100.00;100334.50;5058219;28;20523;-71
2022/01/11 09:19:51;;;;;;;32.28;16.83;;;;;;;2.42;100.00;100335.13;5071691;28;20027;-70
2022/01/11 09:22:17;;;;;;;33.55;17.63;;;;;;;2.55;100.00;100328.88;5069453;28;20478;-70
2022/01/11 09:24:42;;;;;;;33.67;16.63;;;;;;;2.49;100.00;100337.31;5057717;28;20025;-70
2022/01/11 09:27:07;;;;;;;35.20;17.27;;;;;;;2.49;100.00;100331.97;5064226;28;20025;-71
2022/01/11 09:29:36;;;;;;;31.70;17.30;;;;;;;2.43;100.00;100335.97;5067235;28;20024;-72
2022/01/11 09:32:04;;;;;;;37.88;19.10;;;;;;;2.39;100.00;100326.50;5071240;28;20517;-69
2022/01/11 09:34:30;;;;;;;36.60;19.63;;;;;;;2.30;100.00;100311.13;5057955;28;20087;-71
2022/01/11 09:36:56;;;;;;;41.55;18.45;;;;;;;2.57;100.00;100337.63;5061912;28;20028;-70
2022/01/11 09:39:22;;;;;;;42.95;18.27;;;;;;;2.68;100.00;100335.00;5064769;28;20471;-70
2022/01/11 09:41:47;;;;;;;37.85;19.35;;;;;;;2.72;100.00;100338.28;5060853;28;20020;-71
2022/01/11 09:44:13;;;;;;;41.30;20.38;;;;;;;2.78;100.00;100338.69;5061014;28;20024;-71
2022/01/11 09:46:39;;;;;;;43.22;20.02;;;;;;;2.89;99.25;100332.53;5071748;28;20021;-70
2022/01/11 09:49:05;;;;;;;33.13;17.15;;;;;;;2.94;98.20;100334.84;5072449;28;20028;-69
2022/01/11 09:51:32;;;;;;;36.60;18.63;;;;;;;2.91;98.30;100346.63;5060678;28;20020;-70
2022/01/11 09:53:58;;;;;;;41.97;20.58;;;;;;;2.87;97.23;100342.47;5065293;28;20032;-71
2022/01/11 09:56:23;;;;;;;39.40;18.00;;;;;;;2.81;99.56;100340.28;5065430;28;20028;-70
2022/01/11 09:58:49;;;;;;;35.17;17.98;;;;;;;3.03;99.85;100321.63;5075457;28;20062;-70
2022/01/11 10:01:14;;;;;;;32.67;16.60;;;;;;;3.11;98.33;100331.72;5064918;28;20398;-70
2022/01/11 10:04:04;;;;;;;29.63;15.65;;;;;;;3.37;98.78;100336.88;5077348;28;20069;-72
2022/01/11 10:06:32;;;;;;;40.15;16.88;;;;;;;3.43;97.45;100334.59;5070735;28;20103;-71
2022/01/11 10:09:13;;;;;;;29.75;16.42;;;;;;;3.58;96.10;100335.19;5063043;28;20057;-71
2022/01/11 10:11:49;;;;;;;30.08;15.57;;;;;;;3.73;97.14;100336.66;5066770;28;20524;-69
2022/01/11 10:14:33;;;;;;;26.83;14.13;;;;;;;3.99;95.68;100332.88;5068009;28;20123;-71
2022/01/11 10:17:24;;;;;;;26.52;14.73;;;;;;;4.05;93.95;100338.59;5059565;28;20438;-72
2022/01/11 10:20:11;;;;;;;23.17;13.38;;;;;;;4.13;94.47;100325.41;5059730;28;20032;-73
2022/01/11 10:23:05;;;;;;;31.42;14.32;;;;;;;4.39;92.19;100346.56;5067379;28;20397;-72
2022/01/11 10:25:40;;;;;;;29.55;15.07;;;;;;;4.70;92.22;100327.94;5060676;28;20028;-75
2022/01/11 10:28:06;;;;;;;27.45;15.40;;;;;;;4.82;90.67;100338.50;5062060;28;20477;-75
2022/01/11 10:30:34;;;;;;;25.38;13.77;;;;;;;4.57;90.36;100315.56;5065236;28;20081;-76
2022/01/11 10:33:03;;;;;;;28.73;14.10;;;;;;;4.87;90.65;100332.72;5053015;28;20024;-76
2022/01/11 10:35:40;;;;;;;27.65;13.18;;;;;;;5.10;90.51;100329.94;5067964;28;20027;-71
2022/01/11 10:38:06;;;;;;;26.35;13.73;;;;;;;5.14;89.01;100315.31;5056592;28;20035;-75
2022/01/11 10:40:35;;;;;;;25.45;13.85;;;;;;;5.27;89.00;100332.03;5063889;28;20021;-76
2022/01/11 10:43:06;;;;;;;23.92;13.27;;;;;;;5.35;88.74;100309.91;5065087;28;20032;-75
2022/01/11 10:45:34;;;;;;;24.05;13.20;;;;;;;5.44;88.43;100320.69;5063052;28;20048;-75
2022/01/11 10:48:14;;;;;;;27.83;13.70;;;;;;;5.57;86.40;100325.00;5062781;28;20024;-75
2022/01/11 10:50:46;;;;;;;22.88;13.00;;;;;;;5.52;86.91;100330.75;5055004;28;20033;-75
2022/01/11 10:53:16;;;;;;;25.17;13.05;;;;;;;5.33;86.27;100320.78;5069617;28;20020;-76
2022/01/11 10:55:42;;;;;;;26.90;13.05;;;;;;;5.39;85.54;100325.59;5056569;28;20047;-73
2022/01/11 10:58:11;;;;;;;27.42;12.13;;;;;;;5.60;85.79;100330.09;5059744;28;20512;-74
2022/01/11 11:00:41;;;;;;;23.73;12.15;;;;;;;5.84;85.23;100313.66;5064303;28;20059;-74
2022/01/11 11:03:20;;;;;;;20.63;12.15;;;;;;;5.90;83.53;100334.63;5065934;28;20037;-74
2022/01/11 11:05:51;;;;;;;20.20;11.55;;;;;;;6.25;82.96;100323.44;5060189;28;20090;-74
2022/01/11 11:08:30;;;;;;;21.52;11.38;;;;;;;6.46;81.16;100323.31;5058274;28;20037;-74
2022/01/11 11:10:55;;;;;;;20.80;11.50;;;;;;;6.52;80.79;100327.28;5058487;28;20063;-74
2022/01/11 11:13:42;;;;;;;21.65;11.88;;;;;;;6.32;79.93;100323.75;5070559;28;20059;-74